Time;durP1;ratioP1;P1;durP2;ratioP2;P2;SDS_P1;SDS_P2;PMS_P1;PMS_P2;Temp;Humidity;BMP_temperature;BMP_pressure;BME280_temperature;BME280_humidity;BME280_pressure;Samples;Min_cycle;Max_cycle;Signal;HPM_P1;HPM_P2
2022/01/13 00:01:52;;;;;;;;;26.00;22.25;;;;;11.01;73.41;103789.59;5064348;28;62174;-74
2022/01/13 00:04:18;;;;;;;;;32.75;27.50;;;;;11.07;73.19;103789.22;5080328;28;62048;-74
2022/01/13 00:06:44;;;;;;;;;35.25;27.00;;;;;11.16;73.21;103785.75;5064998;28;61899;-73
2022/01/13 00:09:12;;;;;;;;;56.00;32.25;;;;;11.20;72.91;103790.50;5063933;28;61721;-74
2022/01/13 00:11:38;;;;;;;;;48.25;32.75;;;;;11.16;73.24;103787.44;5080368;28;62043;-74
2022/01/13 00:19:47;;;;;;;;;27.50;21.00;;;;;11.14;73.33;103789.00;5063936;28;61947;-74
2022/01/13 00:24:45;;;;;;;;;34.00;26.25;;;;;11.17;72.52;103786.66;5064223;28;61801;-74
2022/01/13 00:27:13;;;;;;;;;29.00;24.50;;;;;11.11;72.99;103787.00;5079634;28;61789;-74
2022/01/13 00:29:41;;;;;;;;;30.50;25.00;;;;;11.08;72.56;103788.47;5063765;28;61691;-74
2022/01/13 00:32:08;;;;;;;;;28.75;21.50;;;;;11.00;72.79;103787.75;5064306;28;61991;-74
2022/01/13 00:34:34;;;;;;;;;24.00;20.75;;;;;10.97;73.17;103782.22;5064426;28;61878;-74
2022/01/13 00:36:59;;;;;;;;;27.00;23.75;;;;;10.98;72.93;103779.72;5064236;28;61712;-73
2022/01/13 00:39:25;;;;;;;;;30.00;21.50;;;;;11.00;73.13;103780.78;5063049;28;62487;-72
2022/01/13 00:41:51;;;;;;;;;28.50;23.50;;;;;11.02;73.12;103783.56;5063900;28;61960;-72
2022/01/13 00:44:20;;;;;;;;;23.75;18.00;;;;;11.06;73.06;103785.69;5062956;28;61737;-72
2022/01/13 00:46:54;;;;;;;;;32.50;22.50;;;;;11.07;72.95;103771.75;5064485;28;61968;-72
2022/01/13 00:49:20;;;;;;;;;25.50;21.00;;;;;11.10;72.77;103774.66;5063337;28;61881;-72
2022/01/13 00:51:46;;;;;;;;;23.75;19.00;;;;;11.13;72.60;103784.53;5064379;28;61940;-73
2022/01/13 00:54:12;;;;;;;;;23.75;21.50;;;;;11.10;72.75;103777.28;5062043;28;62077;-73
2022/01/13 00:56:37;;;;;;;;;22.25;17.75;;;;;11.13;72.83;103776.66;5063460;28;61932;-73
2022/01/13 00:59:14;;;;;;;;;29.50;21.50;;;;;11.10;72.64;103777.28;5061564;28;63865;-73
2022/01/13 01:01:50;;;;;;;;;19.00;18.50;;;;;11.05;72.66;103781.19;5063823;28;61802;-73
2022/01/13 01:04:17;;;;;;;;;16.75;15.00;;;;;10.97;72.61;103771.72;5063638;28;62113;-72
2022/01/13 01:06:44;;;;;;;;;22.50;17.00;;;;;10.93;73.30;103770.50;5062579;28;61785;-73
2022/01/13 01:09:15;;;;;;;;;21.50;15.50;;;;;10.90;73.37;103778.09;5062578;28;61834;-73
2022/01/13 01:11:43;;;;;;;;;25.25;14.00;;;;;10.87;73.84;103780.47;5062368;28;62261;-73
2022/01/13 01:14:08;;;;;;;;;19.25;16.25;;;;;10.85;73.51;103779.38;5063202;28;61752;-73
2022/01/13 01:16:36;;;;;;;;;30.25;23.50;;;;;10.87;74.05;103775.19;5063700;28;61993;-73
2022/01/13 01:19:06;;;;;;;;;38.00;27.50;;;;;10.92;74.03;103776.53;5062817;28;62099;-74
2022/01/13 01:29:27;;;;;;;;;17.75;11.25;;;;;10.97;73.85;103771.72;5062810;28;62781;-74
2022/01/13 01:31:55;;;;;;;;;22.50;17.00;;;;;10.98;73.63;103765.66;5063440;28;61844;-74
2022/01/13 01:37:17;;;;;;;;;17.75;14.50;;;;;11.02;73.17;103762.53;5063170;28;62109;-74
2022/01/13 01:39:44;;;;;;;;;18.25;14.75;;;;;11.04;73.64;103766.22;5061070;28;64097;-74
2022/01/13 01:42:09;;;;;;;;;23.00;21.50;;;;;11.04;73.52;103767.13;5062897;28;61788;-74
2022/01/13 01:44:40;;;;;;;;;21.50;17.50;;;;;10.95;73.71;103766.31;5078828;28;61901;-73
2022/01/13 01:47:08;;;;;;;;;18.00;14.50;;;;;11.00;73.73;103779.88;5063542;28;61873;-74
2022/01/13 01:49:39;;;;;;;;;13.75;10.00;;;;;10.96;72.72;103783.00;5062312;28;61828;-74
2022/01/13 01:52:05;;;;;;;;;18.00;13.00;;;;;10.85;72.84;103784.66;5062978;28;61703;-74
2022/01/13 01:54:31;;;;;;;;;14.00;11.00;;;;;10.76;72.84;103781.19;5063041;28;61780;-74
2022/01/13 01:56:57;;;;;;;;;15.50;14.00;;;;;10.70;72.93;103786.78;5062374;28;62062;-73
2022/01/13 01:59:27;;;;;;;;;16.50;11.50;;;;;10.72;73.17;103790.47;5062096;28;61778;-74
2022/01/13 02:01:52;;;;;;;;;19.25;13.50;;;;;10.72;73.42;103787.84;5063016;28;61695;-73
2022/01/13 02:04:19;;;;;;;;;20.50;12.00;;;;;10.74;73.41;103793.25;5062877;28;61847;-73
2022/01/13 02:06:45;;;;;;;;;18.50;13.50;;;;;10.71;73.40;103799.16;5062709;28;62048;-74
2022/01/13 02:09:14;;;;;;;;;18.75;13.75;;;;;10.72;73.96;103792.19;5062482;28;62905;-73
2022/01/13 02:11:45;;;;;;;;;18.25;14.50;;;;;10.74;73.86;103794.19;5062524;28;61947;-73
2022/01/13 02:16:56;;;;;;;;;9.50;8.00;;;;;10.76;73.04;103794.31;5063240;28;61951;-73
2022/01/13 02:19:24;;;;;;;;;16.25;13.00;;;;;10.71;72.89;103798.22;5060581;28;63682;-73
2022/01/13 02:21:50;;;;;;;;;11.25;10.00;;;;;10.66;73.07;103807.38;5062607;28;61685;-74
2022/01/13 02:24:16;;;;;;;;;16.50;11.50;;;;;10.62;72.95;103808.78;5062608;28;62086;-73
2022/01/13 02:26:41;;;;;;;;;13.50;11.25;;;;;10.63;73.30;103802.78;5062330;28;62572;-73
2022/01/13 02:29:07;;;;;;;;;13.50;11.25;;;;;10.62;73.24;103808.78;5062185;28;61856;-73
2022/01/13 02:31:32;;;;;;;;;19.50;12.00;;;;;10.61;73.14;103805.25;5061267;28;63024;-73
2022/01/13 02:33:58;;;;;;;;;19.50;9.25;;;;;10.54;72.91;103797.59;5062496;28;61785;-73
2022/01/13 02:36:24;;;;;;;;;13.75;10.50;;;;;10.52;72.94;103790.31;5062684;28;61710;-74
2022/01/13 02:38:53;;;;;;;;;15.50;11.75;;;;;10.51;72.99;103783.25;5061635;28;61821;-73
2022/01/13 02:41:19;;;;;;;;;13.00;9.50;;;;;10.46;73.18;103782.81;5062225;28;62083;-73
2022/01/13 02:43:46;;;;;;;;;18.50;10.00;;;;;10.42;73.29;103778.06;5077741;28;62117;-74
2022/01/13 02:46:56;;;;;;;;;15.00;13.00;;;;;10.40;73.51;103782.25;5062591;28;61760;-73
2022/01/13 02:49:23;;;;;;;;;15.00;9.25;;;;;10.37;73.38;103790.75;5061189;28;61946;-74
2022/01/13 02:51:51;;;;;;;;;16.00;11.00;;;;;10.37;73.81;103789.84;5062349;28;62376;-74
2022/01/13 02:54:17;;;;;;;;;18.75;12.00;;;;;10.34;73.75;103782.56;5062464;28;61860;-74
2022/01/13 02:56:43;;;;;;;;;10.00;9.00;;;;;10.40;73.78;103779.63;5061578;28;62052;-73
2022/01/13 02:59:10;;;;;;;;;14.25;11.50;;;;;10.40;73.31;103788.41;5061732;28;61905;-74
2022/01/13 03:01:35;;;;;;;;;15.00;11.25;;;;;10.41;73.73;103781.44;5061883;28;61867;-74
2022/01/13 03:04:05;;;;;;;;;18.75;16.25;;;;;10.42;74.01;103772.81;5061661;28;61755;-74
2022/01/13 03:06:34;;;;;;;;;11.00;5.50;;;;;10.45;73.53;103775.69;5061948;28;61845;-74
2022/01/13 03:09:04;;;;;;;;;13.50;10.75;;;;;10.53;73.57;103784.31;5061284;28;61972;-74
2022/01/13 03:11:33;;;;;;;;;16.25;14.00;;;;;10.53;73.51;103779.97;5061916;28;61975;-74
2022/01/13 03:14:00;;;;;;;;;13.75;13.75;;;;;10.58;73.61;103777.75;5061875;28;61718;-74
2022/01/13 03:16:26;;;;;;;;;26.25;12.75;;;;;10.58;73.80;103777.75;5062182;28;61732;-74
2022/01/13 03:18:52;;;;;;;;;20.25;14.75;;;;;10.56;73.23;103780.28;5060506;28;62722;-74
2022/01/13 03:21:18;;;;;;;;;18.25;11.25;;;;;10.55;73.52;103783.66;5061835;28;61815;-74
2022/01/13 03:23:44;;;;;;;;;14.75;11.50;;;;;10.55;73.37;103782.75;5061778;28;61817;-74
2022/01/13 03:26:09;;;;;;;;;21.25;13.75;;;;;10.52;73.55;103767.63;5061559;28;62004;-74
2022/01/13 03:28:40;;;;;;;;;16.00;10.00;;;;;10.51;73.76;103773.66;5061291;28;62855;-74
2022/01/13 03:31:07;;;;;;;;;20.00;16.00;;;;;10.53;73.60;103776.44;5061943;28;61778;-74
2022/01/13 03:33:34;;;;;;;;;18.50;11.50;;;;;10.51;73.67;103776.28;5061442;28;61994;-74
2022/01/13 03:36:02;;;;;;;;;18.75;13.00;;;;;10.54;74.04;103786.13;5061518;28;62127;-74
2022/01/13 03:38:30;;;;;;;;;11.00;10.50;;;;;10.53;73.58;103776.44;5061216;28;62579;-73
2022/01/13 03:40:55;;;;;;;;;25.00;14.25;;;;;10.53;74.17;103772.09;5076640;28;61926;-73
2022/01/13 03:43:21;;;;;;;;;7.50;6.50;;;;;10.53;74.03;103771.19;5061764;28;61931;-73
2022/01/13 03:45:47;;;;;;;;;17.75;11.25;;;;;10.54;74.15;103771.31;5061577;28;61803;-73
2022/01/13 03:48:13;;;;;;;;;17.00;11.50;;;;;10.54;73.34;103768.69;5061026;28;62463;-73
2022/01/13 03:50:43;;;;;;;;;19.00;15.00;;;;;10.60;74.05;103774.53;5061855;28;62270;-73
2022/01/13 03:53:46;;;;;;;;;13.50;12.25;;;;;10.56;73.55;103768.81;5061639;28;61831;-73
2022/01/13 03:56:24;;;;;;;;;15.25;10.00;;;;;10.56;73.82;103764.50;5060806;28;61801;-73
2022/01/13 03:59:05;;;;;;;;;18.50;16.75;;;;;10.58;74.03;103776.09;5058965;28;65081;-73
2022/01/13 04:01:54;;;;;;;;;17.00;13.00;;;;;10.60;73.48;103771.91;5061127;28;61817;-73
2022/01/13 04:04:20;;;;;;;;;17.25;13.50;;;;;10.59;73.12;103771.75;5061504;28;61719;-73
2022/01/13 04:06:46;;;;;;;;;14.00;10.75;;;;;10.59;72.85;103777.91;5061764;28;61790;-73
2022/01/13 04:09:50;;;;;;;;;10.00;9.50;;;;;10.58;72.90;103777.75;5060644;28;61889;-73
2022/01/13 04:12:16;;;;;;;;;14.00;11.25;;;;;10.48;72.62;103775.09;5059199;28;61765;-73
2022/01/13 04:17:13;;;;;;;;;11.25;9.00;;;;;10.41;72.52;103786.69;5061281;28;62055;-73
2022/01/13 04:19:40;;;;;;;;;13.00;11.50;;;;;10.44;72.84;103787.91;5063109;28;61702;-73
2022/01/13 04:22:07;;;;;;;;;14.00;11.25;;;;;10.45;72.78;103780.97;5064302;28;62044;-73
2022/01/13 04:24:33;;;;;;;;;20.25;13.00;;;;;10.42;72.89;103784.22;5064656;28;61913;-73
2022/01/13 04:26:59;;;;;;;;;21.25;12.00;;;;;10.38;72.67;103774.22;5064412;28;61954;-73
2022/01/13 04:29:34;;;;;;;;;20.25;14.25;;;;;10.35;72.62;103770.41;5079450;28;63940;-73
2022/01/13 04:31:59;;;;;;;;;12.50;10.75;;;;;10.35;72.93;103767.78;5064306;28;61916;-73
2022/01/13 04:34:26;;;;;;;;;13.25;11.50;;;;;10.35;72.82;103763.44;5064370;28;61828;-73
2022/01/13 04:36:57;;;;;;;;;16.25;9.75;;;;;10.34;72.42;103768.53;5064422;28;62021;-73
2022/01/13 04:39:24;;;;;;;;;12.25;9.50;;;;;10.37;72.54;103763.59;5063240;28;61836;-73
2022/01/13 04:41:49;;;;;;;;;13.50;13.00;;;;;10.40;71.96;103761.25;5064444;28;62084;-73
2022/01/13 04:44:17;;;;;;;;;15.50;10.75;;;;;10.43;72.04;103762.44;5063945;28;61826;-73
2022/01/13 04:46:44;;;;;;;;;18.25;12.75;;;;;10.42;72.77;103757.06;5064261;28;61755;-73
2022/01/13 04:49:10;;;;;;;;;13.50;12.00;;;;;10.42;72.39;103757.97;5063680;28;62124;-73
2022/01/13 04:51:37;;;;;;;;;12.00;11.75;;;;;10.48;72.68;103764.59;5079741;28;62128;-73
2022/01/13 04:54:03;;;;;;;;;7.50;7.50;;;;;10.50;72.52;103763.94;5064311;28;61784;-73
2022/01/13 04:56:37;;;;;;;;;14.25;10.50;;;;;10.52;72.32;103764.06;5063508;28;61926;-73
2022/01/13 04:59:02;;;;;;;;;10.50;8.75;;;;;10.52;71.75;103771.94;5063712;28;61899;-73
2022/01/13 05:01:28;;;;;;;;;14.50;9.50;;;;;10.52;71.69;103767.63;5079201;28;61821;-73
2022/01/13 05:03:53;;;;;;;;;16.50;13.50;;;;;10.51;72.20;103772.75;5064055;28;62434;-74
2022/01/13 05:06:19;;;;;;;;;19.25;10.50;;;;;10.51;72.34;103771.03;5064329;28;62041;-73
2022/01/13 05:08:49;;;;;;;;;15.00;10.00;;;;;10.62;72.15;103769.38;5063271;28;61811;-73
2022/01/13 05:11:16;;;;;;;;;15.00;10.25;;;;;10.68;71.70;103771.66;5063578;28;61715;-73
2022/01/13 05:13:41;;;;;;;;;18.75;12.50;;;;;10.58;71.40;103770.84;5063501;28;61745;-73
2022/01/13 05:16:10;;;;;;;;;21.00;15.25;;;;;10.51;71.62;103765.78;5063859;28;61848;-73
2022/01/13 05:21:05;;;;;;;;;10.00;10.00;;;;;10.43;72.12;103766.75;5063701;28;61863;-73
2022/01/13 05:23:31;;;;;;;;;10.25;9.25;;;;;10.41;72.22;103760.44;5063602;28;62127;-73
2022/01/13 05:25:56;;;;;;;;;13.50;11.25;;;;;10.22;71.50;103774.47;5063564;28;61765;-73
2022/01/13 05:28:22;;;;;;;;;15.00;9.75;;;;;10.21;72.35;103776.94;5062709;28;62644;-73
2022/01/13 05:30:48;;;;;;;;;11.50;8.75;;;;;10.21;72.15;103772.59;5062995;28;62029;-73
2022/01/13 05:33:13;;;;;;;;;11.50;9.50;;;;;10.21;72.20;103764.72;5079520;28;61985;-73
2022/01/13 05:35:39;;;;;;;;;13.50;10.50;;;;;10.17;71.87;103766.91;5075438;27;62167;-73
2022/01/13 05:38:06;;;;;;;;;15.75;11.25;;;;;10.17;71.71;103769.53;5042448;28;61917;-73
2022/01/13 05:40:33;;;;;;;;;12.75;10.00;;;;;10.10;71.95;103762.78;5042794;28;62017;-73
2022/01/13 05:42:59;;;;;;;;;10.00;8.50;;;;;10.10;72.23;103765.41;5042988;28;61892;-73
2022/01/13 05:45:29;;;;;;;;;11.50;9.50;;;;;10.08;71.81;103755.56;5041906;28;62138;-73
2022/01/13 05:47:57;;;;;;;;;9.50;9.50;;;;;10.06;72.37;103758.03;5042721;28;61797;-73
2022/01/13 05:50:23;;;;;;;;;15.75;13.25;;;;;10.04;72.04;103757.88;5043203;28;61669;-73
2022/01/13 05:52:49;;;;;;;;;13.25;13.25;;;;;10.01;72.36;103748.81;5043065;28;61837;-73
2022/01/13 05:55:16;;;;;;;;;12.25;8.00;;;;;10.03;72.40;103760.38;5041590;28;62192;-73
2022/01/13 05:57:42;;;;;;;;;13.25;9.75;;;;;10.06;72.57;103759.75;5041500;28;62146;-73
2022/01/13 06:00:10;;;;;;;;;14.25;12.00;;;;;10.08;72.55;103751.22;5058006;28;61829;-73
2022/01/13 06:02:36;;;;;;;;;19.50;10.75;;;;;10.09;72.57;103753.09;5042550;28;61871;-73
2022/01/13 06:05:02;;;;;;;;;22.50;14.00;;;;;10.10;72.66;103746.13;5043123;28;62111;-74
2022/01/13 06:07:28;;;;;;;;;20.75;13.75;;;;;10.17;72.52;103753.78;5042020;28;61755;-75
2022/01/13 06:09:53;;;;;;;;;16.50;15.00;;;;;10.17;72.44;103761.66;5042577;28;61917;-75
2022/01/13 06:12:21;;;;;;;;;14.75;12.25;;;;;10.16;72.35;103759.84;5042650;28;61867;-74
2022/01/13 06:14:46;;;;;;;;;16.50;14.00;;;;;10.13;72.33;103760.47;5042758;28;62123;-75
2022/01/13 06:17:12;;;;;;;;;14.00;10.50;;;;;10.19;72.54;103768.91;5042027;28;61698;-75
2022/01/13 06:19:37;;;;;;;;;17.25;11.25;;;;;10.20;72.15;103769.84;5042625;28;61719;-75
2022/01/13 06:22:03;;;;;;;;;24.00;15.75;;;;;10.14;72.20;103770.19;5042659;28;61833;-75
2022/01/13 06:24:29;;;;;;;;;23.00;14.50;;;;;10.17;72.64;103766.91;5068826;28;61877;-75
2022/01/13 06:26:54;;;;;;;;;22.25;14.75;;;;;10.19;72.32;103766.28;5076860;28;64743;-75
2022/01/13 06:29:19;;;;;;;;;17.25;15.50;;;;;10.24;72.16;103775.53;5062753;28;61837;-74
2022/01/13 06:31:45;;;;;;;;;17.50;13.50;;;;;10.28;72.24;103770.56;5077843;28;62476;-75
2022/01/13 06:34:10;;;;;;;;;27.25;14.25;;;;;10.27;72.32;103767.00;5077950;27;62188;-74
2022/01/13 06:36:36;;;;;;;;;21.75;12.75;;;;;10.24;71.58;103767.66;5061509;28;61781;-74
2022/01/13 06:39:01;;;;;;;;;18.50;13.00;;;;;10.29;72.03;103769.78;5077298;28;61759;-75
2022/01/13 06:41:27;;;;;;;;;18.00;14.00;;;;;10.28;72.22;103765.31;5060651;28;61826;-74
2022/01/13 06:43:52;;;;;;;;;13.25;12.00;;;;;10.30;72.37;103769.94;5057299;28;61814;-79
2022/01/13 06:46:18;;;;;;;;;21.75;12.75;;;;;10.34;72.05;103771.16;5060533;27;64764;-74
2022/01/13 06:48:45;;;;;;;;;20.75;12.25;;;;;10.32;71.89;103771.00;5061723;28;61733;-75
2022/01/13 06:51:10;;;;;;;;;26.25;21.25;;;;;10.29;72.08;103768.13;5061584;28;61713;-75
2022/01/13 06:53:36;;;;;;;;;32.25;27.25;;;;;10.22;71.98;103774.47;5061803;28;61764;-74
2022/01/13 06:56:01;;;;;;;;;30.00;25.50;;;;;10.19;72.16;103778.50;5058920;28;64924;-74
2022/01/13 06:58:27;;;;;;;;;20.25;17.75;;;;;10.09;72.23;103768.84;5061921;28;61833;-74
2022/01/13 07:00:53;;;;;;;;;23.75;21.75;;;;;10.07;72.33;103773.03;5061604;28;61926;-75
2022/01/13 07:03:20;;;;;;;;;18.50;16.00;;;;;10.08;72.54;103771.31;5058661;28;62058;-75
2022/01/13 07:05:46;;;;;;;;;17.25;11.25;;;;;10.15;72.69;103771.09;5045637;28;62550;-73
2022/01/13 07:08:12;;;;;;;;;14.00;13.25;;;;;10.19;72.25;103765.38;5048865;28;61965;-73
2022/01/13 07:10:38;;;;;;;;;25.25;17.25;;;;;10.20;71.97;103769.84;5054140;28;62257;-72
2022/01/13 07:13:03;;;;;;;;;19.50;16.25;;;;;10.15;71.76;103766.75;5061936;28;61776;-72
2022/01/13 07:15:31;;;;;;;;;22.00;20.50;;;;;10.12;72.17;103774.38;5061371;28;62745;-72
2022/01/13 07:17:56;;;;;;;;;19.50;17.00;;;;;10.13;72.60;103770.97;5061390;28;61869;-72
2022/01/13 07:20:22;;;;;;;;;19.00;14.75;;;;;10.14;72.23;103777.16;5043100;28;61726;-72
2022/01/13 07:22:47;;;;;;;;;22.00;14.00;;;;;10.15;72.83;103778.97;5041956;28;61760;-72
2022/01/13 07:25:13;;;;;;;;;14.00;14.00;;;;;10.20;72.64;103785.59;5040594;28;61790;-73
2022/01/13 07:27:40;;;;;;;;;18.00;15.00;;;;;10.22;72.70;103782.34;5041308;28;62042;-73
2022/01/13 07:30:08;;;;;;;;;18.00;13.25;;;;;10.20;71.93;103782.97;5041226;28;61996;-73
2022/01/13 07:32:34;;;;;;;;;26.25;18.00;;;;;10.16;72.38;103778.22;5041773;28;62184;-72
2022/01/13 07:35:00;;;;;;;;;19.50;14.00;;;;;10.17;72.44;103780.03;5068088;27;64866;-72
2022/01/13 07:37:26;;;;;;;;;24.00;16.75;;;;;10.19;72.35;103775.88;5060852;28;61979;-73
2022/01/13 07:39:51;;;;;;;;;17.75;16.50;;;;;10.20;72.71;103781.25;5061600;28;61783;-73
2022/01/13 07:42:17;;;;;;;;;27.50;17.00;;;;;10.26;72.78;103779.97;5061440;28;61921;-73
2022/01/13 07:44:43;;;;;;;;;24.50;18.50;;;;;10.31;72.50;103786.66;5060074;28;62616;-72
2022/01/13 07:47:09;;;;;;;;;24.00;22.00;;;;;10.31;72.41;103787.56;5075996;27;61865;-73
2022/01/13 07:49:38;;;;;;;;;19.75;17.50;;;;;10.30;72.90;103780.44;5061292;28;61771;-72
2022/01/13 07:52:04;;;;;;;;;26.50;18.75;;;;;10.38;72.32;103783.81;5060937;28;61866;-72
2022/01/13 07:54:31;;;;;;;;;26.25;19.25;;;;;10.34;71.69;103769.44;5062448;28;61876;-72
2022/01/13 07:56:58;;;;;;;;;22.00;14.50;;;;;10.34;71.52;103771.16;5061547;28;61910;-72
2022/01/13 07:59:28;;;;;;;;;29.75;20.50;;;;;10.30;71.75;103772.56;5059547;28;61912;-72
2022/01/13 08:01:57;;;;;;;;;28.00;21.00;;;;;10.28;71.99;103776.72;5047693;28;61811;-72
2022/01/13 08:04:23;;;;;;;;;19.50;18.00;;;;;10.23;72.03;103768.41;5043815;28;61862;-73
2022/01/13 08:06:49;;;;;;;;;17.00;10.50;;;;;10.30;72.22;103776.91;5050850;28;62378;-75
2022/01/13 08:09:14;;;;;;;;;21.75;14.50;;;;;10.32;72.08;103771.00;5044143;28;61797;-75
2022/01/13 08:11:39;;;;;;;;;20.25;18.00;;;;;10.32;72.08;103765.75;5043112;28;61847;-75
2022/01/13 08:14:05;;;;;;;;;27.00;24.00;;;;;10.34;71.89;103765.91;5043836;28;62654;-75
2022/01/13 08:16:34;;;;;;;;;22.00;16.50;;;;;10.32;71.48;103771.00;5043785;28;61951;-76
2022/01/13 08:21:44;;;;;;;;;21.00;14.00;;;;;10.30;72.07;103769.03;5064470;28;61999;-75
2022/01/13 08:24:09;;;;;;;;;22.25;19.25;;;;;10.33;71.87;103780.75;5057172;28;61773;-75
2022/01/13 08:26:35;;;;;;;;;22.50;18.00;;;;;10.17;71.38;103766.91;5052336;28;61943;-74
2022/01/13 08:29:01;;;;;;;;;22.75;18.00;;;;;10.21;72.21;103769.06;5052764;28;61848;-74
2022/01/13 08:31:26;;;;;;;;;23.50;22.50;;;;;10.15;71.71;103764.13;5069623;28;61872;-74
2022/01/13 08:33:52;;;;;;;;;19.75;17.25;;;;;10.19;72.29;103761.03;5054517;28;61896;-74
2022/01/13 08:36:17;;;;;;;;;17.00;13.00;;;;;10.21;71.86;103761.19;5044452;28;61719;-74
2022/01/13 08:38:42;;;;;;;;;27.25;20.75;;;;;10.17;72.28;103759.97;5055186;28;62405;-76
2022/01/13 08:41:08;;;;;;;;;21.25;18.00;;;;;10.18;72.24;103764.44;5049555;28;62098;-75
2022/01/13 08:43:34;;;;;;;;;21.75;19.00;;;;;10.23;72.18;103764.88;5056240;28;61999;-76
2022/01/13 08:46:01;;;;;;;;;24.50;15.50;;;;;10.20;72.18;103764.59;5063885;28;61888;-75
2022/01/13 08:48:27;;;;;;;;;28.00;23.25;;;;;10.21;72.63;103767.34;5064040;28;62036;-75
2022/01/13 08:50:52;;;;;;;;;19.25;19.25;;;;;10.25;72.58;103760.69;5064164;28;61760;-76
2022/01/13 08:53:18;;;;;;;;;20.75;19.50;;;;;10.33;71.96;103762.38;5063124;28;61898;-77
2022/01/13 08:55:45;;;;;;;;;27.25;21.00;;;;;10.37;71.82;103764.50;5059645;28;61800;-76
2022/01/13 08:58:11;;;;;;;;;25.00;21.00;;;;;10.39;72.22;103769.88;5077599;27;61748;-73
2022/01/13 09:00:37;;;;;;;;;29.50;24.00;;;;;10.39;71.94;103764.63;5050338;28;62114;-76
2022/01/13 09:03:07;;;;;;;;;30.00;19.25;;;;;10.47;71.76;103771.50;5043492;28;62541;-76
2022/01/13 09:05:34;;;;;;;;;27.00;19.00;;;;;10.46;71.79;103774.03;5042688;28;61928;-76
2022/01/13 09:08:00;;;;;;;;;29.00;18.25;;;;;10.45;71.51;103773.06;5043860;28;61834;-75
2022/01/13 09:10:26;;;;;;;;;34.25;22.00;;;;;10.41;71.25;103774.53;5043818;28;62140;-76
2022/01/13 09:12:51;;;;;;;;;29.50;21.25;;;;;10.40;71.69;103771.75;5042896;28;61734;-76
2022/01/13 09:15:31;;;;;;;;;31.00;20.50;;;;;10.44;71.66;103776.50;5059463;28;61923;-76
2022/01/13 09:17:59;;;;;;;;;31.75;24.75;;;;;10.51;72.12;103784.16;5051377;28;62370;-76
2022/01/13 09:20:24;;;;;;;;;33.00;21.25;;;;;10.53;70.64;103785.22;5049603;28;61971;-75
2022/01/13 09:22:50;;;;;;;;;28.00;22.75;;;;;10.57;71.25;103789.97;5045463;28;61750;-75
2022/01/13 09:25:15;;;;;;;;;26.00;20.00;;;;;10.58;70.78;103793.53;5043576;28;61893;-75
2022/01/13 09:27:41;;;;;;;;;23.75;18.50;;;;;10.64;70.92;103807.22;5043558;28;61856;-75
2022/01/13 09:30:13;;;;;;;;;19.00;18.75;;;;;10.62;70.43;103811.41;5043939;28;61859;-75
2022/01/13 09:32:40;;;;;;;;;26.00;21.25;;;;;10.50;70.44;103808.59;5058515;28;63091;-76
2022/01/13 09:35:07;;;;;;;;;16.25;13.50;;;;;10.49;70.26;103808.44;5056604;28;61777;-76
2022/01/13 09:37:34;;;;;;;;;25.75;17.50;;;;;10.48;70.58;103814.50;5063504;28;61738;-75
2022/01/13 09:39:59;;;;;;;;;18.50;16.25;;;;;10.52;70.75;103817.53;5063588;28;61958;-75
2022/01/13 09:42:26;;;;;;;;;20.75;18.75;;;;;10.60;71.02;103820.84;5058590;28;62128;-76
2022/01/13 09:44:54;;;;;;;;;22.50;21.75;;;;;10.65;70.58;103819.59;5058258;28;61819;-76
2022/01/13 09:47:20;;;;;;;;;23.50;18.00;;;;;10.67;70.76;103819.72;5054579;28;61926;-76
2022/01/13 09:49:47;;;;;;;;;20.50;20.50;;;;;10.74;70.52;103825.69;5066793;28;61820;-77
2022/01/13 09:52:12;;;;;;;;;24.50;19.50;;;;;10.76;70.52;103821.50;5042606;28;62851;-76
2022/01/13 09:54:38;;;;;;;;;24.50;17.25;;;;;10.76;70.11;103810.09;5043158;28;61754;-76
2022/01/13 09:57:03;;;;;;;;;21.50;18.00;;;;;10.68;70.37;103814.63;5042726;28;61856;-75
2022/01/13 09:59:29;;;;;;;;;25.50;20.75;;;;;10.65;70.83;103809.09;5043318;28;62421;-75
2022/01/13 10:01:54;;;;;;;;;20.00;17.75;;;;;10.77;70.21;103815.47;5052348;28;61835;-75
2022/01/13 10:04:20;;;;;;;;;27.75;18.00;;;;;10.81;70.15;103824.56;5054826;28;62029;-76
2022/01/13 10:06:47;;;;;;;;;21.25;19.25;;;;;10.82;69.65;103819.47;5058831;28;61730;-73
2022/01/13 10:09:13;;;;;;;;;22.00;16.00;;;;;10.72;68.64;103829.88;5059007;28;61774;-73
2022/01/13 10:11:44;;;;;;;;;20.25;15.75;;;;;10.70;68.54;103820.03;5044304;28;62973;-73
2022/01/13 10:16:54;;;;;;;;;26.00;21.25;;;;;10.83;69.33;103823.91;5042340;28;61809;-76
2022/01/13 10:19:29;;;;;;;;;17.75;14.50;;;;;10.87;69.15;103813.72;5045515;28;62022;-76
2022/01/13 10:21:58;;;;;;;;;28.25;21.75;;;;;10.86;68.65;103823.25;5061939;28;62040;-76
2022/01/13 10:24:27;;;;;;;;;26.00;20.25;;;;;10.88;68.85;103821.69;5062706;28;61900;-73
2022/01/13 10:27:10;;;;;;;;;28.00;22.25;;;;;10.85;68.74;103824.97;5055551;28;61949;-76
2022/01/13 10:29:49;;;;;;;;;30.75;19.50;;;;;10.87;69.18;103822.50;5050676;28;61815;-76
2022/01/13 10:32:18;;;;;;;;;34.75;27.25;;;;;10.89;69.07;103820.03;5057430;28;63792;-75
2022/01/13 10:34:46;;;;;;;;;26.25;20.50;;;;;10.84;69.03;103802.13;5067698;27;62047;-76
2022/01/13 10:37:19;;;;;;;;;40.50;26.25;;;;;10.84;68.83;103807.38;5077952;28;61847;-75
2022/01/13 10:40:02;;;;;;;;;33.25;22.25;;;;;10.85;68.81;103822.34;5078200;27;62109;-74
2022/01/13 10:45:05;;;;;;;;;29.50;20.25;;;;;10.92;68.90;103808.06;5062333;28;62016;-75
2022/01/13 10:47:32;;;;;;;;;28.25;23.50;;;;;10.88;68.72;103816.44;5053995;28;61843;-75
2022/01/13 10:50:04;;;;;;;;;25.75;18.50;;;;;10.86;69.15;103812.75;5047808;28;61856;-74
2022/01/13 10:52:31;;;;;;;;;26.75;20.50;;;;;10.88;69.07;103811.19;5051304;28;61785;-74
2022/01/13 10:55:12;;;;;;;;;30.50;24.00;;;;;10.89;68.76;103806.88;5050119;28;61834;-74
2022/01/13 10:57:43;;;;;;;;;30.00;25.00;;;;;10.82;68.48;103815.91;5066873;28;61883;-75
2022/01/13 11:00:35;;;;;;;;;19.75;19.00;;;;;10.80;68.65;103806.97;5050746;28;61900;-75
2022/01/13 11:03:07;;;;;;;;;25.50;17.75;;;;;10.82;68.92;103806.31;5063699;28;63697;-75
2022/01/13 11:05:40;;;;;;;;;42.50;32.25;;;;;10.86;68.89;103799.63;5051716;28;62011;-75
2022/01/13 11:08:08;;;;;;;;;24.75;20.00;;;;;10.94;69.11;103808.22;5065029;27;61892;-74
2022/01/13 11:10:35;;;;;;;;;29.00;24.50;;;;;10.93;68.06;103804.69;5056904;28;61789;-79
2022/01/13 11:13:04;;;;;;;;;34.75;20.75;;;;;10.93;68.05;103798.50;5055356;28;61774;-77
2022/01/13 11:15:30;;;;;;;;;42.50;34.00;;;;;10.96;68.54;103799.69;5041508;28;62146;-77
2022/01/13 11:17:58;;;;;;;;;34.25;25.50;;;;;11.01;68.03;103801.03;5046372;28;61943;-74
2022/01/13 11:20:25;;;;;;;;;43.25;34.50;;;;;11.10;68.63;103797.38;5049482;28;62008;-74
2022/01/13 11:22:53;;;;;;;;;33.75;26.75;;;;;11.21;68.40;103788.78;5064385;28;63780;-73
2022/01/13 11:25:23;;;;;;;;;30.25;24.50;;;;;11.29;68.24;103785.16;5067298;28;61755;-73
2022/01/13 11:27:49;;;;;;;;;34.50;26.50;;;;;11.37;68.20;103783.19;5062925;28;61762;-73
2022/01/13 11:30:17;;;;;;;;;48.25;39.00;;;;;11.45;68.13;103782.16;5060880;28;62011;-73
2022/01/13 11:32:44;;;;;;;;;41.25;28.00;;;;;11.52;67.60;103774.00;5053632;28;62778;-74
2022/01/13 11:35:13;;;;;;;;;41.00;34.00;;;;;11.62;66.73;103776.69;5062787;28;61833;-74
2022/01/13 11:37:40;;;;;;;;;27.50;20.75;;;;;11.60;66.05;103773.00;5067124;28;62255;-74
2022/01/13 11:40:07;;;;;;;;;50.25;38.25;;;;;11.49;66.33;103765.88;5065509;28;62162;-73
2022/01/13 11:42:45;;;;;;;;;41.00;28.25;;;;;11.50;66.16;103767.69;5050230;28;62034;-73
2022/01/13 11:45:11;;;;;;;;;36.00;29.25;;;;;11.41;66.37;103765.16;5045037;28;61932;-74
2022/01/13 11:47:37;;;;;;;;;34.25;28.50;;;;;11.46;66.53;103762.94;5047007;28;61933;-74